Terminal Aerodrome Forecast
Issued by NWS

Home | Current Version | Previous Version | Text Only | Print | Product List | Glossary On
Versions: 1 2 3 4 5 6 7 8 9 10 11 12 13 14 15
413
FTUS46 KMTR 201124
TAFSJC
TAF
KSJC 201124Z 2012/2112 14028G38KT 4SM +RA OVC015
     FM201600 15020G30KT 6SM -RA OVC015
     FM202000 22018G25KT 6SM SHRA BKN020 OVC050
     FM210100 30015G20KT P6SM -SHRA BKN020 OVC050
     FM210800 30015KT P6SM VCSH OVC030=

USA.gov is the U.S. government's official web portal to all federal, state and local government web resources and services.